Time;durP1;ratioP1;P1;durP2;ratioP2;P2;SDS_P1;SDS_P2;PMS_P1;PMS_P2;Temp;Humidity;BMP_temperature;BMP_pressure;BME280_temperature;BME280_humidity;BME280_pressure;Samples;Min_cycle;Max_cycle;Signal;HPM_P1;HPM_P2
2022/12/13 00:01:55;;;;;;;39.77;21.30;;;-0.10;99.90;;;;;;5048133;28;20212;-33
2022/12/13 00:04:25;;;;;;;34.87;20.67;;;-0.10;99.90;;;;;;5047620;28;20303;-31
2022/12/13 00:06:53;;;;;;;35.07;21.03;;;-0.10;99.90;;;;;;5046383;28;20648;-31
2022/12/13 00:09:21;;;;;;;34.70;21.57;;;-0.10;99.90;;;;;;5047034;28;20299;-31
2022/12/13 00:11:51;;;;;;;35.00;22.77;;;-0.10;99.90;;;;;;5047852;28;20567;-31
2022/12/13 00:14:20;;;;;;;35.57;21.40;;;-0.20;99.90;;;;;;5045758;28;20759;-31
2022/12/13 00:16:48;;;;;;;40.77;20.83;;;-0.20;99.90;;;;;;5047905;28;20196;-31
2022/12/13 00:19:16;;;;;;;40.73;22.83;;;-0.20;99.90;;;;;;5067088;28;20566;-31
2022/12/13 00:21:46;;;;;;;36.40;20.30;;;-0.20;99.90;;;;;;5067880;28;20269;-31
2022/12/13 00:24:15;;;;;;;33.20;20.47;;;-0.20;99.90;;;;;;5054660;28;20697;-31
2022/12/13 00:26:43;;;;;;;33.73;19.97;;;-0.20;99.90;;;;;;5048550;28;20285;-31
2022/12/13 00:29:10;;;;;;;34.40;20.23;;;-0.20;99.90;;;;;;5056152;28;20216;-31
2022/12/13 00:31:38;;;;;;;33.47;20.27;;;-0.30;99.90;;;;;;5066285;28;20207;-31
2022/12/13 00:34:25;;;;;;;36.83;21.90;;;-0.30;99.90;;;;;;5062841;28;20206;-31
2022/12/13 00:36:53;;;;;;;40.67;21.77;;;-0.30;99.90;;;;;;5053741;28;20299;-31
2022/12/13 00:39:21;;;;;;;37.93;21.43;;;-0.30;99.90;;;;;;5045781;28;20220;-31
2022/12/13 00:41:48;;;;;;;37.53;20.53;;;-0.30;99.90;;;;;;5050108;28;20303;-31
2022/12/13 00:44:20;;;;;;;33.10;19.30;;;-0.30;99.90;;;;;;5049808;28;20307;-31
2022/12/13 00:46:52;;;;;;;34.30;20.10;;;-0.40;99.90;;;;;;5057264;28;20318;-31
2022/12/13 00:49:22;;;;;;;37.70;20.67;;;-0.40;99.90;;;;;;5066027;28;20678;-31
2022/12/13 00:51:49;;;;;;;38.67;21.00;;;-0.40;99.90;;;;;;5066011;28;20227;-32
2022/12/13 00:54:21;;;;;;;35.57;20.73;;;-0.50;99.90;;;;;;5065129;28;20669;-31
2022/12/13 00:56:53;;;;;;;36.57;20.80;;;-0.50;99.90;;;;;;5066689;28;20211;-31
2022/12/13 00:59:20;;;;;;;36.20;21.37;;;-0.60;99.90;;;;;;5065969;28;20290;-31
2022/12/13 01:01:47;;;;;;;33.03;19.83;;;-0.60;99.90;;;;;;5057580;28;20201;-31
2022/12/13 01:04:17;;;;;;;33.67;20.37;;;-0.60;99.90;;;;;;5064697;28;20223;-31
2022/12/13 01:06:48;;;;;;;32.73;19.37;;;-0.60;99.90;;;;;;5065936;28;20219;-31
2022/12/13 01:09:22;;;;;;;34.43;20.03;;;-0.60;99.90;;;;;;5064542;28;20241;-33
2022/12/13 01:11:49;;;;;;;36.37;19.10;;;-0.70;99.90;;;;;;5066054;28;20199;-33
2022/12/13 01:14:21;;;;;;;32.67;19.33;;;-0.70;99.90;;;;;;5066018;28;20231;-33
2022/12/13 01:16:54;;;;;;;35.47;20.17;;;-0.70;99.90;;;;;;5065934;28;20260;-32
2022/12/13 01:19:25;;;;;;;33.83;19.50;;;-0.70;99.90;;;;;;5065870;28;20673;-31
2022/12/13 01:22:04;;;;;;;32.90;20.73;;;-0.70;99.90;;;;;;5065804;28;20231;-31
2022/12/13 01:24:32;;;;;;;33.63;19.93;;;-0.80;99.90;;;;;;5064985;28;20264;-32
2022/12/13 01:27:03;;;;;;;34.57;20.17;;;-0.80;99.90;;;;;;5045978;28;20670;-32
2022/12/13 01:29:33;;;;;;;34.17;20.53;;;-0.80;99.90;;;;;;5043014;28;20682;-32
2022/12/13 01:32:03;;;;;;;35.83;20.53;;;-0.90;99.90;;;;;;5062826;28;20306;-31
2022/12/13 01:34:30;;;;;;;35.77;22.10;;;-0.90;99.90;;;;;;5065386;28;20238;-31
2022/12/13 01:36:57;;;;;;;35.77;20.93;;;-0.90;99.90;;;;;;5065675;28;20283;-31
2022/12/13 01:39:29;;;;;;;34.67;20.03;;;-0.90;99.90;;;;;;5064919;28;20563;-30
2022/12/13 01:42:04;;;;;;;39.27;22.00;;;-1.00;99.90;;;;;;5064658;28;20656;-29
2022/12/13 01:45:06;;;;;;;36.33;21.37;;;-1.00;99.90;;;;;;5059459;28;20315;-29
2022/12/13 01:47:44;;;;;;;33.03;20.47;;;-1.00;99.90;;;;;;5049011;28;20239;-29
2022/12/13 01:50:17;;;;;;;35.67;19.87;;;-1.00;99.90;;;;;;5054951;28;20724;-30
2022/12/13 01:52:46;;;;;;;36.60;20.43;;;-1.10;99.90;;;;;;5045284;28;20196;-29
2022/12/13 01:55:15;;;;;;;33.70;19.97;;;-1.10;99.90;;;;;;5057711;28;20196;-29
2022/12/13 01:57:46;;;;;;;34.07;20.80;;;-1.10;99.90;;;;;;5058516;28;20223;-31
2022/12/13 02:00:14;;;;;;;35.57;20.67;;;-1.10;99.90;;;;;;5056618;28;20208;-31
2022/12/13 02:02:44;;;;;;;37.17;19.93;;;-1.10;99.90;;;;;;5048336;28;20208;-31
2022/12/13 02:05:37;;;;;;;32.67;19.57;;;-1.10;99.90;;;;;;5064483;28;20311;-31
2022/12/13 02:08:08;;;;;;;33.67;19.20;;;-1.10;99.90;;;;;;5047903;28;20232;-30
2022/12/13 02:10:36;;;;;;;34.60;19.80;;;-1.20;99.90;;;;;;5062914;28;20219;-30
2022/12/13 02:13:04;;;;;;;32.50;19.93;;;-1.20;99.90;;;;;;5064600;28;20302;-30
2022/12/13 02:16:00;;;;;;;31.27;18.77;;;-1.10;99.90;;;;;;5061105;28;20261;-30
2022/12/13 02:18:55;;;;;;;33.80;20.03;;;-1.10;99.90;;;;;;5048447;28;20208;-30
2022/12/13 02:21:29;;;;;;;34.33;19.37;;;-1.10;99.90;;;;;;5064590;28;20211;-30
2022/12/13 02:24:25;;;;;;;34.00;19.37;;;-1.10;99.90;;;;;;5062635;28;20391;-30
2022/12/13 02:27:05;;;;;;;31.80;17.87;;;-1.10;99.90;;;;;;5063455;28;20701;-30
2022/12/13 02:29:50;;;;;;;31.20;18.10;;;-1.10;99.90;;;;;;5065207;28;20273;-30
2022/12/13 02:32:36;;;;;;;32.97;18.00;;;-1.10;99.90;;;;;;5065318;28;20316;-29
2022/12/13 02:35:12;;;;;;;31.50;17.90;;;-1.10;99.90;;;;;;5044760;28;20618;-31
2022/12/13 02:38:10;;;;;;;28.33;17.90;;;-1.10;99.90;;;;;;5043997;28;20204;-31
2022/12/13 02:40:43;;;;;;;31.73;17.70;;;-1.10;99.90;;;;;;5044748;28;20490;-31
2022/12/13 02:43:23;;;;;;;33.43;17.83;;;-1.10;99.90;;;;;;5049202;28;20259;-31
2022/12/13 02:45:54;;;;;;;30.80;17.17;;;-1.00;99.90;;;;;;5049169;28;20224;-31
2022/12/13 02:48:32;;;;;;;33.20;17.60;;;-1.00;99.90;;;;;;5049230;28;20199;-31
2022/12/13 02:51:04;;;;;;;30.90;17.60;;;-1.00;99.90;;;;;;5061049;28;20285;-31
2022/12/13 02:53:37;;;;;;;36.80;19.00;;;-1.00;99.90;;;;;;5067838;28;20302;-31
2022/12/13 02:56:05;;;;;;;30.33;18.40;;;-1.00;99.90;;;;;;5069132;28;20227;-31
2022/12/13 02:58:38;;;;;;;33.27;18.83;;;-1.00;99.90;;;;;;5059966;28;20294;-31
2022/12/13 03:01:19;;;;;;;32.70;17.83;;;-1.10;99.90;;;;;;5062787;28;20850;-31
2022/12/13 03:04:17;;;;;;;27.80;16.33;;;-1.10;99.90;;;;;;5055708;28;20228;-31
2022/12/13 03:06:58;;;;;;;33.07;18.80;;;-1.10;99.90;;;;;;5054216;28;20258;-31
2022/12/13 03:09:49;;;;;;;32.77;17.40;;;-1.20;99.90;;;;;;5067826;28;20298;-31
2022/12/13 03:15:57;;;;;;;28.47;17.23;;;-1.20;99.90;;;;;;5068577;28;20226;-31
2022/12/13 03:18:28;;;;;;;30.97;17.63;;;-1.20;99.90;;;;;;5044774;28;20527;-30
2022/12/13 03:21:00;;;;;;;28.63;17.77;;;-1.30;99.90;;;;;;5065434;28;20267;-33
2022/12/13 03:23:28;;;;;;;30.47;17.07;;;-1.30;99.90;;;;;;5067870;28;20195;-33
2022/12/13 03:26:11;;;;;;;30.77;16.03;;;-1.30;99.90;;;;;;5066515;28;20203;-33
2022/12/13 03:28:41;;;;;;;26.20;15.70;;;-1.30;99.90;;;;;;5068544;28;20348;-33
2022/12/13 03:31:08;;;;;;;28.53;16.30;;;-1.30;99.90;;;;;;5068230;28;20223;-33
2022/12/13 03:33:38;;;;;;;28.03;16.80;;;-1.30;99.90;;;;;;5068654;28;20268;-33
2022/12/13 03:36:10;;;;;;;26.53;15.70;;;-1.30;99.90;;;;;;5068196;28;20219;-33
2022/12/13 03:38:39;;;;;;;28.03;15.80;;;-1.30;99.90;;;;;;5067107;28;20219;-33
2022/12/13 03:41:12;;;;;;;25.30;16.00;;;-1.30;99.90;;;;;;5063939;28;20673;-33
2022/12/13 03:43:40;;;;;;;30.17;16.17;;;-1.20;99.90;;;;;;5048072;28;20298;-33
2022/12/13 03:46:10;;;;;;;28.50;15.17;;;-1.20;99.90;;;;;;5048393;28;20212;-33
2022/12/13 03:48:40;;;;;;;26.60;15.40;;;-1.20;99.90;;;;;;5047980;28;20204;-33
2022/12/13 03:51:09;;;;;;;24.13;14.50;;;-1.20;99.90;;;;;;5047451;28;20660;-34
2022/12/13 03:53:39;;;;;;;26.60;14.13;;;-1.20;99.90;;;;;;5046750;28;20299;-31
2022/12/13 03:56:06;;;;;;;23.77;14.40;;;-1.20;99.90;;;;;;5047528;28;20299;-31
2022/12/13 03:58:37;;;;;;;25.87;14.30;;;-1.10;99.90;;;;;;5055015;28;20202;-31
2022/12/13 04:01:09;;;;;;;24.83;13.70;;;-1.10;99.90;;;;;;5065866;28;20213;-31
2022/12/13 04:03:45;;;;;;;22.37;12.97;;;-1.10;99.90;;;;;;5049935;28;20195;-31
2022/12/13 04:06:15;;;;;;;25.90;13.30;;;-1.20;99.90;;;;;;5067565;28;20199;-31
2022/12/13 04:08:49;;;;;;;25.23;14.33;;;-1.10;99.90;;;;;;5066287;28;20199;-31
2022/12/13 04:14:11;;;;;;;24.70;13.63;;;-1.10;99.90;;;;;;5052449;28;20196;-31
2022/12/13 04:16:50;;;;;;;26.67;14.97;;;-1.10;99.90;;;;;;5066002;28;20257;-31
2022/12/13 04:19:20;;;;;;;23.43;13.07;;;-1.10;99.90;;;;;;5067177;28;20230;-31
2022/12/13 04:21:53;;;;;;;23.50;13.27;;;-1.10;99.90;;;;;;5067327;28;20565;-31
2022/12/13 04:24:22;;;;;;;26.20;13.27;;;-1.10;99.90;;;;;;5064849;28;20306;-31
2022/12/13 04:26:59;;;;;;;24.70;13.20;;;-1.10;99.90;;;;;;5067040;28;20242;-31
2022/12/13 04:29:30;;;;;;;22.87;13.10;;;-1.10;99.90;;;;;;5067035;28;20202;-31
2022/12/13 04:32:03;;;;;;;20.90;13.03;;;-1.10;99.90;;;;;;5064352;28;20239;-32
2022/12/13 04:34:30;;;;;;;21.00;13.30;;;-1.10;99.90;;;;;;5066691;28;20202;-31
2022/12/13 04:37:03;;;;;;;18.20;11.33;;;-1.10;99.90;;;;;;5066674;28;20623;-31
2022/12/13 04:39:33;;;;;;;26.03;13.20;;;-1.20;99.90;;;;;;5065720;28;20714;-30
2022/12/13 04:42:04;;;;;;;21.67;12.40;;;-1.20;99.90;;;;;;5065172;28;20231;-30
2022/12/13 04:44:33;;;;;;;21.50;12.73;;;-1.20;99.90;;;;;;5066724;28;20219;-30
2022/12/13 04:47:08;;;;;;;18.93;12.03;;;-1.20;99.90;;;;;;5066439;28;20899;-30
2022/12/13 04:49:38;;;;;;;18.93;11.43;;;-1.20;99.90;;;;;;5065142;28;20627;-30
2022/12/13 04:52:08;;;;;;;22.47;12.27;;;-1.20;99.90;;;;;;5066412;28;20227;-30
2022/12/13 04:54:35;;;;;;;23.07;12.57;;;-1.20;99.90;;;;;;5065895;28;20615;-30
2022/12/13 04:57:06;;;;;;;19.00;11.90;;;-1.20;99.90;;;;;;5066767;28;20819;-30
2022/12/13 04:59:37;;;;;;;21.00;12.50;;;-1.20;99.90;;;;;;5066888;28;20210;-30
2022/12/13 05:02:05;;;;;;;20.57;12.83;;;-1.20;99.90;;;;;;5064749;28;20228;-30
2022/12/13 05:04:38;;;;;;;20.80;12.50;;;-1.30;99.90;;;;;;5065845;28;20268;-32
2022/12/13 05:07:05;;;;;;;20.90;13.03;;;-1.30;99.90;;;;;;5059889;28;20224;-31
2022/12/13 05:09:35;;;;;;;20.17;11.47;;;-1.30;99.90;;;;;;5064121;28;20629;-32
2022/12/13 05:12:02;;;;;;;22.37;12.80;;;-1.30;99.90;;;;;;5061003;28;20318;-31
2022/12/13 05:14:48;;;;;;;22.40;12.83;;;-1.40;99.90;;;;;;5049604;28;20299;-32
2022/12/13 05:17:17;;;;;;;21.43;12.50;;;-1.40;99.90;;;;;;5059164;28;20203;-32
2022/12/13 05:19:46;;;;;;;21.20;12.37;;;-1.40;99.90;;;;;;5066132;28;20195;-31
2022/12/13 05:22:16;;;;;;;25.17;12.17;;;-1.40;99.90;;;;;;5044920;28;20208;-32
2022/12/13 05:24:51;;;;;;;24.57;13.73;;;-1.40;99.90;;;;;;5063244;28;20214;-31
2022/12/13 05:27:23;;;;;;;19.53;12.60;;;-1.50;99.90;;;;;;5066084;28;20212;-32
2022/12/13 05:29:57;;;;;;;24.43;12.67;;;-1.50;99.90;;;;;;5065543;28;20245;-32
2022/12/13 05:32:37;;;;;;;22.77;12.80;;;-1.50;99.90;;;;;;5065903;28;20215;-32
2022/12/13 05:35:15;;;;;;;20.40;12.23;;;-1.50;99.90;;;;;;5065773;28;20197;-32
2022/12/13 05:37:53;;;;;;;24.17;13.30;;;-1.50;99.90;;;;;;5064642;28;20230;-31
2022/12/13 05:40:23;;;;;;;22.87;13.33;;;-1.50;99.90;;;;;;5056660;28;20204;-32
2022/12/13 05:42:50;;;;;;;20.50;12.57;;;-1.50;99.90;;;;;;5046240;28;20287;-32
2022/12/13 05:45:30;;;;;;;24.20;13.27;;;-1.50;99.90;;;;;;5045913;28;20302;-32
2022/12/13 05:47:58;;;;;;;23.70;13.17;;;-1.50;99.90;;;;;;5045675;28;20212;-31
2022/12/13 05:50:25;;;;;;;23.33;13.57;;;-1.50;99.90;;;;;;5045435;28;20695;-31
2022/12/13 05:52:57;;;;;;;20.27;12.33;;;-1.50;99.90;;;;;;5046289;28;20295;-31
2022/12/13 05:55:27;;;;;;;20.83;12.43;;;-1.50;99.90;;;;;;5045200;28;20653;-30
2022/12/13 05:58:01;;;;;;;20.63;12.87;;;-1.50;99.90;;;;;;5056411;28;20285;-30
2022/12/13 06:00:28;;;;;;;21.03;12.37;;;-1.50;99.90;;;;;;5053749;28;20274;-30
2022/12/13 06:02:58;;;;;;;22.00;13.40;;;-1.50;99.90;;;;;;5055058;28;20733;-30
2022/12/13 06:05:30;;;;;;;19.17;12.67;;;-1.50;99.90;;;;;;5054174;28;20227;-30
2022/12/13 06:08:00;;;;;;;25.03;14.60;;;-1.50;99.90;;;;;;5047747;28;20742;-30
2022/12/13 06:10:28;;;;;;;25.10;13.87;;;-1.50;99.90;;;;;;5052584;28;20206;-30
2022/12/13 06:13:03;;;;;;;21.93;14.10;;;-1.50;99.90;;;;;;5056176;28;20227;-30
2022/12/13 06:15:51;;;;;;;25.87;14.03;;;-1.40;99.90;;;;;;5054474;28;20196;-30
2022/12/13 06:18:29;;;;;;;24.57;14.93;;;-1.50;99.90;;;;;;5055356;28;20202;-30
2022/12/13 06:21:02;;;;;;;22.80;13.97;;;-1.50;99.90;;;;;;5055744;28;20299;-30
2022/12/13 06:23:34;;;;;;;23.07;14.13;;;-1.40;99.90;;;;;;5062934;28;21088;-30
2022/12/13 06:26:05;;;;;;;22.57;14.03;;;-1.40;99.90;;;;;;5065151;28;20662;-30
2022/12/13 06:28:37;;;;;;;27.23;14.57;;;-1.40;99.90;;;;;;5065039;28;20209;-30
2022/12/13 06:31:04;;;;;;;21.27;13.50;;;-1.40;99.90;;;;;;5060418;28;20216;-30
2022/12/13 06:33:35;;;;;;;26.23;14.17;;;-1.50;99.90;;;;;;5061973;28;20231;-30
2022/12/13 06:36:03;;;;;;;26.30;14.07;;;-1.50;99.90;;;;;;5065230;28;20202;-30
2022/12/13 06:38:34;;;;;;;22.27;14.20;;;-1.50;99.90;;;;;;5062770;28;20207;-30
2022/12/13 06:41:15;;;;;;;25.73;14.87;;;-1.50;99.90;;;;;;5064901;28;20211;-30
2022/12/13 06:43:44;;;;;;;25.43;14.33;;;-1.60;99.90;;;;;;5064798;28;20735;-30
2022/12/13 06:46:14;;;;;;;24.77;14.50;;;-1.60;99.90;;;;;;5055773;28;20293;-30
2022/12/13 06:48:41;;;;;;;24.30;13.67;;;-1.60;99.90;;;;;;5062391;28;20215;-30
2022/12/13 06:51:09;;;;;;;24.40;13.73;;;-1.60;99.90;;;;;;5064630;28;20235;-30
2022/12/13 06:53:39;;;;;;;23.33;14.57;;;-1.60;99.90;;;;;;5064018;28;20207;-32
2022/12/13 06:56:12;;;;;;;24.17;14.07;;;-1.70;99.90;;;;;;5056736;28;20620;-32
2022/12/13 06:58:42;;;;;;;25.37;15.13;;;-1.70;99.90;;;;;;5044745;28;20691;-32
2022/12/13 07:01:17;;;;;;;25.43;15.07;;;-1.70;99.90;;;;;;5046774;28;20261;-31
2022/12/13 07:03:54;;;;;;;23.70;15.93;;;-1.60;99.90;;;;;;5053348;28;20207;-32
2022/12/13 07:06:23;;;;;;;26.77;15.83;;;-1.70;99.90;;;;;;5071489;28;20223;-30
2022/12/13 07:08:55;;;;;;;22.20;14.00;;;-1.70;99.90;;;;;;5054875;28;20623;-30
2022/12/13 07:11:27;;;;;;;24.63;15.27;;;-1.70;99.90;;;;;;5080052;28;20255;-29
2022/12/13 07:13:55;;;;;;;25.03;14.40;;;-1.70;99.90;;;;;;5061127;28;20195;-30
2022/12/13 07:16:23;;;;;;;20.93;13.40;;;-1.70;99.90;;;;;;5054584;28;20743;-29
2022/12/13 07:18:57;;;;;;;23.37;15.10;;;-1.70;99.90;;;;;;5061647;28;20204;-29
2022/12/13 07:21:37;;;;;;;26.20;14.93;;;-1.70;99.90;;;;;;5054803;28;20207;-29
2022/12/13 07:24:04;;;;;;;24.00;15.77;;;-1.70;99.90;;;;;;5045764;28;20259;-29
2022/12/13 07:26:32;;;;;;;24.57;14.93;;;-1.70;99.90;;;;;;5044568;28;20196;-29
2022/12/13 07:28:59;;;;;;;22.23;14.60;;;-1.70;99.90;;;;;;5048064;28;20518;-29
2022/12/13 07:31:28;;;;;;;25.97;16.60;;;-1.70;99.90;;;;;;5048082;28;20212;-30
2022/12/13 07:33:58;;;;;;;25.27;15.57;;;-1.70;99.90;;;;;;5061127;28;20229;-30
2022/12/13 07:36:25;;;;;;;26.80;15.73;;;-1.70;99.90;;;;;;5057733;28;20216;-30
2022/12/13 07:38:54;;;;;;;26.97;15.67;;;-1.80;99.90;;;;;;5062387;28;20202;-30
2022/12/13 07:41:22;;;;;;;26.93;15.20;;;-1.80;99.90;;;;;;5062402;28;20211;-30
2022/12/13 07:43:54;;;;;;;25.97;14.77;;;-1.80;99.90;;;;;;5056302;28;20202;-30
2022/12/13 07:46:23;;;;;;;27.63;15.73;;;-1.70;99.90;;;;;;5064709;28;20235;-30
2022/12/13 07:49:03;;;;;;;26.83;15.50;;;-1.70;99.90;;;;;;5054739;28;20221;-30
2022/12/13 07:51:34;;;;;;;29.63;16.83;;;-1.80;99.90;;;;;;5057642;28;20300;-30
2022/12/13 07:54:07;;;;;;;26.27;16.03;;;-1.80;99.90;;;;;;5067056;28;20211;-30
2022/12/13 07:56:36;;;;;;;28.93;15.30;;;-1.80;99.90;;;;;;5055789;28;20298;-30
2022/12/13 07:59:07;;;;;;;34.17;16.47;;;-1.80;99.90;;;;;;5064286;28;20203;-30
2022/12/13 08:01:37;;;;;;;31.37;16.60;;;-1.80;99.90;;;;;;5055197;28;20277;-30
2022/12/13 08:04:07;;;;;;;26.27;16.20;;;-1.80;99.90;;;;;;5047316;28;20569;-30
2022/12/13 08:06:37;;;;;;;23.97;15.20;;;-1.80;99.90;;;;;;5066964;28;20199;-30
2022/12/13 08:09:06;;;;;;;26.90;15.80;;;-1.80;99.90;;;;;;5059160;28;20208;-30
2022/12/13 08:11:36;;;;;;;29.83;15.97;;;-1.80;99.90;;;;;;5063964;28;20689;-30
2022/12/13 08:14:07;;;;;;;26.90;15.47;;;-1.80;99.90;;;;;;5053378;28;20235;-30
2022/12/13 08:16:36;;;;;;;26.40;16.33;;;-1.80;99.90;;;;;;5070307;28;20204;-30
2022/12/13 08:19:03;;;;;;;33.57;15.97;;;-1.80;99.90;;;;;;5068655;28;20747;-30
2022/12/13 08:21:40;;;;;;;28.80;16.57;;;-1.80;99.90;;;;;;5065446;28;21514;-30
2022/12/13 08:24:29;;;;;;;33.23;17.80;;;-1.80;99.90;;;;;;5048980;28;20215;-30
2022/12/13 08:27:03;;;;;;;28.17;17.53;;;-1.70;99.90;;;;;;5056383;28;20214;-29
2022/12/13 08:29:36;;;;;;;33.67;16.97;;;-1.70;99.90;;;;;;5058224;28;20199;-29
2022/12/13 08:32:12;;;;;;;33.30;17.00;;;-1.70;99.90;;;;;;5064284;28;20220;-29
2022/12/13 08:34:42;;;;;;;29.63;16.80;;;-1.60;99.90;;;;;;5061589;28;20294;-29
2022/12/13 08:37:12;;;;;;;32.67;18.30;;;-1.60;99.90;;;;;;5058201;28;20798;-29
2022/12/13 08:39:40;;;;;;;32.23;17.07;;;-1.60;99.90;;;;;;5046986;28;20204;-30
2022/12/13 08:42:17;;;;;;;27.50;16.63;;;-1.60;99.90;;;;;;5060317;28;20212;-29
2022/12/13 08:44:52;;;;;;;31.57;17.33;;;-1.60;99.90;;;;;;5062155;28;20196;-30
2022/12/13 08:47:22;;;;;;;29.37;16.17;;;-1.60;99.90;;;;;;5063075;28;20327;-30
2022/12/13 08:49:54;;;;;;;29.13;16.20;;;-1.50;99.90;;;;;;5062233;28;20238;-30
2022/12/13 08:52:31;;;;;;;30.37;17.60;;;-1.50;99.90;;;;;;5045412;28;20224;-30
2022/12/13 08:55:08;;;;;;;29.80;16.67;;;-1.50;99.90;;;;;;5072673;28;20199;-30
2022/12/13 08:57:37;;;;;;;29.57;17.73;;;-1.40;99.90;;;;;;5066960;28;20223;-30
2022/12/13 09:00:05;;;;;;;27.83;15.87;;;-1.40;99.90;;;;;;5066750;28;20196;-30
2022/12/13 09:02:34;;;;;;;27.30;16.73;;;-1.40;99.90;;;;;;5069284;28;20208;-30
2022/12/13 09:05:06;;;;;;;29.27;15.93;;;-1.30;99.90;;;;;;5064678;28;20314;-30
2022/12/13 09:07:35;;;;;;;28.37;16.10;;;-1.30;99.90;;;;;;5066596;28;20223;-29
2022/12/13 09:10:06;;;;;;;30.27;16.20;;;-1.30;99.90;;;;;;5056707;28;20215;-30
2022/12/13 09:12:55;;;;;;;29.30;16.27;;;-1.20;99.90;;;;;;5046394;28;20247;-30
2022/12/13 09:15:30;;;;;;;27.23;16.43;;;-1.20;99.90;;;;;;5046299;28;20561;-29
2022/12/13 09:18:01;;;;;;;28.57;17.17;;;-1.10;99.90;;;;;;5081246;28;20252;-29
2022/12/13 09:20:34;;;;;;;23.80;15.27;;;-1.10;99.90;;;;;;5083304;28;20219;-30
2022/12/13 09:23:09;;;;;;;26.77;15.80;;;-1.00;99.90;;;;;;5061574;28;20215;-30
2022/12/13 09:25:55;;;;;;;29.67;16.97;;;-1.00;99.90;;;;;;5063690;28;20235;-30
2022/12/13 09:28:33;;;;;;;29.70;16.57;;;-0.90;99.90;;;;;;5053043;28;20200;-29
2022/12/13 09:31:06;;;;;;;27.93;15.97;;;-0.80;99.90;;;;;;5064919;28;20243;-30
2022/12/13 09:33:33;;;;;;;27.43;17.50;;;-0.80;99.90;;;;;;5055394;28;20216;-30
2022/12/13 09:36:13;;;;;;;28.17;15.90;;;-0.80;99.90;;;;;;5046149;28;20294;-29
2022/12/13 09:38:45;;;;;;;26.30;16.23;;;-0.70;99.90;;;;;;5066672;28;20229;-30
2022/12/13 09:41:26;;;;;;;28.00;15.73;;;-0.70;99.90;;;;;;5061218;28;20246;-29
2022/12/13 09:44:03;;;;;;;29.10;16.67;;;-0.60;99.90;;;;;;5061299;28;20214;-30
2022/12/13 09:46:42;;;;;;;29.77;16.27;;;-0.60;99.90;;;;;;5059683;28;20644;-29
2022/12/13 09:49:25;;;;;;;27.00;15.77;;;-0.50;99.90;;;;;;5066407;28;20239;-29
2022/12/13 09:52:06;;;;;;;26.23;15.73;;;-0.40;99.90;;;;;;5054375;28;20691;-30
2022/12/13 09:54:40;;;;;;;26.53;16.57;;;-0.40;99.90;;;;;;5052214;28;20191;-29
2022/12/13 09:57:19;;;;;;;26.87;15.97;;;-0.30;99.90;;;;;;5069359;28;20191;-29
2022/12/13 10:00:07;;;;;;;28.30;16.07;;;-0.20;99.90;;;;;;5051799;28;20216;-29
2022/12/13 10:02:42;;;;;;;29.40;16.37;;;-0.20;99.90;;;;;;5062824;28;20259;-30
2022/12/13 10:05:30;;;;;;;22.87;14.33;;;-0.20;99.90;;;;;;5044161;28;20291;-29
2022/12/13 10:08:23;;;;;;;27.43;15.77;;;-0.10;99.90;;;;;;5045758;28;20220;-30
2022/12/13 10:10:54;;;;;;;26.97;16.80;;;0.00;99.90;;;;;;5058757;28;20199;-29
2022/12/13 10:13:42;;;;;;;26.67;16.03;;;0.00;99.90;;;;;;5054445;28;20280;-29
2022/12/13 10:16:25;;;;;;;25.00;15.63;;;0.00;99.90;;;;;;5044973;28;20295;-29
2022/12/13 10:19:21;;;;;;;27.73;16.97;;;0.10;99.90;;;;;;5045077;28;20196;-29
2022/12/13 10:21:58;;;;;;;28.83;16.33;;;0.10;99.90;;;;;;5062689;28;20210;-29
2022/12/13 10:24:46;;;;;;;26.10;15.73;;;0.20;99.90;;;;;;5047675;28;20576;-29
2022/12/13 10:27:17;;;;;;;28.33;16.60;;;0.20;99.90;;;;;;5062190;28;20199;-31
2022/12/13 10:30:07;;;;;;;26.47;16.10;;;0.20;99.90;;;;;;5052086;28;20251;-30
2022/12/13 10:32:42;;;;;;;31.10;17.63;;;0.30;99.90;;;;;;5048935;28;20212;-31
2022/12/13 10:35:21;;;;;;;38.27;18.67;;;0.30;99.90;;;;;;5058065;28;20212;-30
2022/12/13 10:37:51;;;;;;;37.50;19.07;;;0.40;99.90;;;;;;5044473;28;20208;-30
2022/12/13 10:40:47;;;;;;;30.00;17.40;;;0.40;99.90;;;;;;5046536;28;20273;-31
2022/12/13 10:43:25;;;;;;;29.63;16.57;;;0.50;99.90;;;;;;5058624;28;20257;-30
2022/12/13 10:45:56;;;;;;;35.47;17.33;;;0.50;99.90;;;;;;5063522;28;20199;-30
2022/12/13 10:48:50;;;;;;;27.93;15.47;;;0.50;99.90;;;;;;5065187;28;20204;-30
2022/12/13 10:51:23;;;;;;;33.47;17.33;;;0.60;99.90;;;;;;5050818;28;20255;-28
2022/12/13 10:53:57;;;;;;;29.13;16.37;;;0.60;99.90;;;;;;5044547;28;20773;-29
2022/12/13 10:56:40;;;;;;;27.77;16.97;;;0.60;99.90;;;;;;5058993;28;20273;-29
2022/12/13 10:59:17;;;;;;;27.70;17.07;;;0.70;99.90;;;;;;5054654;28;20226;-29
2022/12/13 11:01:46;;;;;;;27.47;16.03;;;0.70;99.90;;;;;;5057874;28;20269;-29
2022/12/13 11:04:30;;;;;;;30.30;16.57;;;0.70;99.90;;;;;;5060507;28;20199;-29
2022/12/13 11:07:25;;;;;;;27.13;15.63;;;0.80;99.90;;;;;;5057901;28;20210;-29
2022/12/13 11:09:52;;;;;;;28.50;16.20;;;0.80;99.90;;;;;;5065202;28;20720;-29
2022/12/13 11:12:25;;;;;;;30.90;16.47;;;0.80;99.90;;;;;;5062795;28;20215;-29
2022/12/13 11:14:59;;;;;;;24.80;15.53;;;0.90;99.90;;;;;;5064524;28;20199;-29
2022/12/13 11:17:29;;;;;;;26.00;16.13;;;0.90;99.90;;;;;;5060671;28;20257;-29
2022/12/13 11:20:03;;;;;;;27.43;15.27;;;0.90;99.90;;;;;;5048760;28;20660;-29
2022/12/13 11:22:37;;;;;;;27.00;14.53;;;1.00;99.90;;;;;;5048502;28;20760;-29
2022/12/13 11:25:08;;;;;;;25.17;15.07;;;1.10;99.90;;;;;;5062088;28;20756;-29
2022/12/13 11:28:01;;;;;;;23.33;14.83;;;1.10;99.90;;;;;;5067673;28;20670;-29
2022/12/13 11:30:37;;;;;;;25.97;14.70;;;1.20;99.90;;;;;;5058042;28;20227;-29
2022/12/13 11:33:15;;;;;;;22.40;14.13;;;1.20;99.90;;;;;;5060991;28;20208;-29
2022/12/13 11:36:10;;;;;;;23.13;14.00;;;1.20;99.90;;;;;;5064798;28;20219;-29
2022/12/13 11:38:59;;;;;;;22.13;12.87;;;1.30;99.90;;;;;;5067131;28;20734;-29
2022/12/13 11:41:38;;;;;;;19.43;12.40;;;1.30;99.90;;;;;;5054654;28;20678;-29
2022/12/13 11:44:22;;;;;;;27.13;14.93;;;1.40;99.90;;;;;;5051310;28;20561;-29
2022/12/13 11:46:54;;;;;;;22.90;14.23;;;1.50;99.90;;;;;;5048330;28;20211;-29
2022/12/13 11:49:42;;;;;;;26.30;15.03;;;1.50;99.90;;;;;;5046672;28;20192;-29
2022/12/13 11:52:20;;;;;;;25.43;14.93;;;1.50;99.90;;;;;;5062094;28;20318;-29
2022/12/13 11:54:50;;;;;;;26.73;15.53;;;1.60;99.90;;;;;;5050541;28;20235;-29
2022/12/13 11:58:00;;;;;;;24.03;14.23;;;1.60;99.90;;;;;;5072889;28;20723;-31
2022/12/13 12:00:36;;;;;;;24.47;14.20;;;1.70;99.90;;;;;;5074478;28;20205;-31
2022/12/13 12:03:19;;;;;;;24.07;15.17;;;1.70;99.90;;;;;;5056386;28;20231;-31
2022/12/13 12:05:56;;;;;;;25.40;15.10;;;1.80;99.90;;;;;;5057495;28;20196;-31
2022/12/13 12:08:45;;;;;;;25.63;15.67;;;1.80;99.90;;;;;;5063577;28;20564;-31
2022/12/13 12:11:39;;;;;;;25.37;14.80;;;1.90;99.90;;;;;;5053908;28;20659;-31
2022/12/13 12:14:19;;;;;;;26.07;15.33;;;1.90;99.90;;;;;;5058523;28;20234;-31
2022/12/13 12:16:54;;;;;;;26.70;15.73;;;2.00;99.90;;;;;;5049333;28;20570;-31
2022/12/13 12:19:38;;;;;;;26.93;15.30;;;2.00;99.90;;;;;;5060683;28;20204;-31
2022/12/13 12:22:32;;;;;;;26.43;14.60;;;2.00;99.90;;;;;;5049700;28;21050;-31
2022/12/13 12:25:11;;;;;;;23.47;14.23;;;2.10;99.90;;;;;;5058305;28;20196;-31
2022/12/13 12:27:56;;;;;;;26.70;15.00;;;2.20;99.90;;;;;;5051539;28;20266;-31
2022/12/13 12:31:15;;;;;;;26.97;15.93;;;2.20;99.90;;;;;;5048775;28;20275;-31
2022/12/13 12:34:07;;;;;;;27.03;15.80;;;2.20;99.90;;;;;;5034744;28;20862;-32
2022/12/13 12:37:04;;;;;;;25.83;15.63;;;2.20;99.90;;;;;;5057970;28;20235;-33
2022/12/13 12:39:42;;;;;;;28.70;15.60;;;2.20;99.90;;;;;;5049035;28;20263;-32
2022/12/13 12:42:17;;;;;;;28.00;15.50;;;2.30;99.90;;;;;;5060166;28;20209;-32
2022/12/13 12:44:56;;;;;;;26.27;15.10;;;2.20;99.90;;;;;;5059744;28;20207;-32
2022/12/13 12:47:29;;;;;;;25.63;15.37;;;2.30;99.90;;;;;;5058468;28;20204;-32
2022/12/13 12:50:21;;;;;;;24.97;15.13;;;2.30;99.90;;;;;;5056316;28;20229;-32
2022/12/13 12:53:08;;;;;;;22.20;14.33;;;2.30;99.90;;;;;;5057758;28;20269;-32
2022/12/13 12:55:50;;;;;;;25.23;15.03;;;2.40;99.90;;;;;;5059824;28;20700;-32
2022/12/13 12:58:45;;;;;;;26.43;15.20;;;2.40;99.90;;;;;;5054101;28;20210;-32
2022/12/13 13:01:30;;;;;;;23.33;13.53;;;2.50;99.90;;;;;;5052398;28;20311;-31
2022/12/13 13:04:13;;;;;;;23.47;13.87;;;2.50;99.90;;;;;;5051545;28;20205;-32
2022/12/13 13:07:06;;;;;;;26.57;14.20;;;2.50;99.90;;;;;;5056382;28;20215;-32
2022/12/13 13:09:52;;;;;;;30.23;14.97;;;2.60;99.90;;;;;;5050752;28;20210;-33
2022/12/13 13:12:23;;;;;;;25.83;15.60;;;2.60;99.90;;;;;;5068804;28;20215;-32
2022/12/13 13:14:57;;;;;;;22.50;14.17;;;2.60;99.90;;;;;;5043766;28;20222;-32